sensor_id;sensor_type;location;lat;lon;timestamp;temperature;humidity
52849;DHT22;38714;53.180;5.812;2022-09-02T00:02:00;15.50;99.90
52849;DHT22;38714;53.180;5.812;2022-09-02T00:04:26;15.50;99.90
52849;DHT22;38714;53.180;5.812;2022-09-02T00:06:52;15.50;99.90
52849;DHT22;38714;53.180;5.812;2022-09-02T00:09:19;15.50;99.90
52849;DHT22;38714;53.180;5.812;2022-09-02T00:11:46;15.40;99.90
52849;DHT22;38714;53.180;5.812;2022-09-02T00:14:14;15.40;99.90
52849;DHT22;38714;53.180;5.812;2022-09-02T00:16:39;15.40;99.90
52849;DHT22;38714;53.180;5.812;2022-09-02T00:19:07;15.40;99.90
52849;DHT22;38714;53.180;5.812;2022-09-02T00:21:33;15.40;99.90
52849;DHT22;38714;53.180;5.812;2022-09-02T00:23:59;15.40;99.90
52849;DHT22;38714;53.180;5.812;2022-09-02T00:26:24;15.40;99.90
52849;DHT22;38714;53.180;5.812;2022-09-02T00:28:50;15.40;99.90
52849;DHT22;38714;53.180;5.812;2022-09-02T00:31:16;15.30;99.90
52849;DHT22;38714;53.180;5.812;2022-09-02T00:33:41;15.30;99.90
52849;DHT22;38714;53.180;5.812;2022-09-02T00:36:07;15.30;99.90
52849;DHT22;38714;53.180;5.812;2022-09-02T00:38:33;15.30;99.90
52849;DHT22;38714;53.180;5.812;2022-09-02T00:41:00;15.30;99.90
52849;DHT22;38714;53.180;5.812;2022-09-02T00:46:11;15.20;99.90
52849;DHT22;38714;53.180;5.812;2022-09-02T00:48:38;15.20;99.90
52849;DHT22;38714;53.180;5.812;2022-09-02T00:51:05;15.20;99.90
52849;DHT22;38714;53.180;5.812;2022-09-02T00:53:31;15.20;99.90
52849;DHT22;38714;53.180;5.812;2022-09-02T00:55:57;15.20;99.90
52849;DHT22;38714;53.180;5.812;2022-09-02T00:58:24;15.20;99.90
52849;DHT22;38714;53.180;5.812;2022-09-02T01:00:50;15.20;99.90
52849;DHT22;38714;53.180;5.812;2022-09-02T01:03:18;15.20;99.90
52849;DHT22;38714;53.180;5.812;2022-09-02T01:05:44;15.10;99.90
52849;DHT22;38714;53.180;5.812;2022-09-02T01:08:15;15.10;99.90
52849;DHT22;38714;53.180;5.812;2022-09-02T01:10:41;15.10;99.90
52849;DHT22;38714;53.180;5.812;2022-09-02T01:13:08;15.10;99.90
52849;DHT22;38714;53.180;5.812;2022-09-02T01:15:35;15.00;99.90
52849;DHT22;38714;53.180;5.812;2022-09-02T01:18:02;15.00;99.90
52849;DHT22;38714;53.180;5.812;2022-09-02T01:20:28;15.00;99.90
52849;DHT22;38714;53.180;5.812;2022-09-02T01:22:54;15.00;99.90
52849;DHT22;38714;53.180;5.812;2022-09-02T01:25:21;15.00;99.90
52849;DHT22;38714;53.180;5.812;2022-09-02T01:27:46;15.00;99.90
52849;DHT22;38714;53.180;5.812;2022-09-02T01:30:16;15.00;99.90
52849;DHT22;38714;53.180;5.812;2022-09-02T01:32:42;14.90;99.90
52849;DHT22;38714;53.180;5.812;2022-09-02T01:35:08;14.90;99.90
52849;DHT22;38714;53.180;5.812;2022-09-02T01:37:35;14.90;99.90
52849;DHT22;38714;53.180;5.812;2022-09-02T01:40:03;14.90;99.90
52849;DHT22;38714;53.180;5.812;2022-09-02T01:42:29;14.80;99.90
52849;DHT22;38714;53.180;5.812;2022-09-02T01:44:54;14.80;99.90
52849;DHT22;38714;53.180;5.812;2022-09-02T01:47:22;14.80;99.90
52849;DHT22;38714;53.180;5.812;2022-09-02T01:49:48;14.80;99.90
52849;DHT22;38714;53.180;5.812;2022-09-02T01:52:14;14.70;99.90
52849;DHT22;38714;53.180;5.812;2022-09-02T01:54:40;14.70;99.90
52849;DHT22;38714;53.180;5.812;2022-09-02T01:57:05;14.80;99.90
52849;DHT22;38714;53.180;5.812;2022-09-02T01:59:31;14.70;99.90
52849;DHT22;38714;53.180;5.812;2022-09-02T02:01:56;14.70;99.90
52849;DHT22;38714;53.180;5.812;2022-09-02T02:04:22;14.70;99.90
52849;DHT22;38714;53.180;5.812;2022-09-02T02:06:49;14.70;99.90
52849;DHT22;38714;53.180;5.812;2022-09-02T02:09:14;14.70;99.90
52849;DHT22;38714;53.180;5.812;2022-09-02T02:11:41;14.70;99.90
52849;DHT22;38714;53.180;5.812;2022-09-02T02:14:07;14.60;99.90
52849;DHT22;38714;53.180;5.812;2022-09-02T02:16:32;14.70;99.90
52849;DHT22;38714;53.180;5.812;2022-09-02T02:18:58;14.60;99.90
52849;DHT22;38714;53.180;5.812;2022-09-02T02:21:25;14.60;99.90
52849;DHT22;38714;53.180;5.812;2022-09-02T02:23:51;14.60;99.90
52849;DHT22;38714;53.180;5.812;2022-09-02T02:26:16;14.50;99.90
52849;DHT22;38714;53.180;5.812;2022-09-02T02:28:42;14.50;99.90
52849;DHT22;38714;53.180;5.812;2022-09-02T02:31:07;14.50;99.90
52849;DHT22;38714;53.180;5.812;2022-09-02T02:33:33;14.40;99.90
52849;DHT22;38714;53.180;5.812;2022-09-02T02:36:00;14.40;99.90
52849;DHT22;38714;53.180;5.812;2022-09-02T02:38:25;14.40;99.90
52849;DHT22;38714;53.180;5.812;2022-09-02T02:40:55;14.40;99.90
52849;DHT22;38714;53.180;5.812;2022-09-02T02:43:22;14.40;99.90
52849;DHT22;38714;53.180;5.812;2022-09-02T02:45:48;14.30;99.90
52849;DHT22;38714;53.180;5.812;2022-09-02T02:48:13;14.40;99.90
52849;DHT22;38714;53.180;5.812;2022-09-02T02:50:38;14.40;99.90
52849;DHT22;38714;53.180;5.812;2022-09-02T02:53:04;14.30;99.90
52849;DHT22;38714;53.180;5.812;2022-09-02T02:55:29;14.30;99.90
52849;DHT22;38714;53.180;5.812;2022-09-02T02:57:55;14.30;99.90
52849;DHT22;38714;53.180;5.812;2022-09-02T03:00:25;14.30;99.90
52849;DHT22;38714;53.180;5.812;2022-09-02T03:02:53;14.30;99.90
52849;DHT22;38714;53.180;5.812;2022-09-02T03:05:19;14.30;99.90
52849;DHT22;38714;53.180;5.812;2022-09-02T03:07:44;14.30;99.90
52849;DHT22;38714;53.180;5.812;2022-09-02T03:10:10;14.20;99.90
52849;DHT22;38714;53.180;5.812;2022-09-02T03:12:37;14.20;99.90
52849;DHT22;38714;53.180;5.812;2022-09-02T03:15:04;14.20;99.90
52849;DHT22;38714;53.180;5.812;2022-09-02T03:17:30;14.20;99.90
52849;DHT22;38714;53.180;5.812;2022-09-02T03:19:55;14.20;99.90
52849;DHT22;38714;53.180;5.812;2022-09-02T03:22:24;14.20;99.90
52849;DHT22;38714;53.180;5.812;2022-09-02T03:24:49;14.20;99.90
52849;DHT22;38714;53.180;5.812;2022-09-02T03:27:15;14.20;99.90
52849;DHT22;38714;53.180;5.812;2022-09-02T03:29:40;14.20;99.90
52849;DHT22;38714;53.180;5.812;2022-09-02T03:32:05;14.20;99.90
52849;DHT22;38714;53.180;5.812;2022-09-02T03:34:31;14.20;99.90
52849;DHT22;38714;53.180;5.812;2022-09-02T03:36:57;14.20;99.90
52849;DHT22;38714;53.180;5.812;2022-09-02T03:39:23;14.10;99.90
52849;DHT22;38714;53.180;5.812;2022-09-02T03:41:48;14.10;99.90
52849;DHT22;38714;53.180;5.812;2022-09-02T03:44:14;14.10;99.90
52849;DHT22;38714;53.180;5.812;2022-09-02T03:46:40;14.20;99.90
52849;DHT22;38714;53.180;5.812;2022-09-02T03:49:06;14.10;99.90
52849;DHT22;38714;53.180;5.812;2022-09-02T03:51:32;14.10;99.90
52849;DHT22;38714;53.180;5.812;2022-09-02T03:53:57;14.00;99.90
52849;DHT22;38714;53.180;5.812;2022-09-02T03:56:23;14.00;99.90
52849;DHT22;38714;53.180;5.812;2022-09-02T03:58:49;14.00;99.90
52849;DHT22;38714;53.180;5.812;2022-09-02T04:01:16;14.00;99.90
52849;DHT22;38714;53.180;5.812;2022-09-02T04:03:42;14.00;99.90
52849;DHT22;38714;53.180;5.812;2022-09-02T04:06:09;14.00;99.90
52849;DHT22;38714;53.180;5.812;2022-09-02T04:08:36;13.90;99.90
52849;DHT22;38714;53.180;5.812;2022-09-02T04:11:05;14.00;99.90
52849;DHT22;38714;53.180;5.812;2022-09-02T04:13:31;13.90;99.90
52849;DHT22;38714;53.180;5.812;2022-09-02T04:15:57;13.90;99.90
52849;DHT22;38714;53.180;5.812;2022-09-02T04:18:22;13.90;99.90
52849;DHT22;38714;53.180;5.812;2022-09-02T04:20:48;13.90;99.90
52849;DHT22;38714;53.180;5.812;2022-09-02T04:23:14;13.80;99.90
52849;DHT22;38714;53.180;5.812;2022-09-02T04:25:43;13.80;99.90
52849;DHT22;38714;53.180;5.812;2022-09-02T04:28:08;13.80;99.90
52849;DHT22;38714;53.180;5.812;2022-09-02T04:30:37;13.80;99.90
52849;DHT22;38714;53.180;5.812;2022-09-02T04:33:02;13.70;99.90
52849;DHT22;38714;53.180;5.812;2022-09-02T04:35:28;13.70;99.90
52849;DHT22;38714;53.180;5.812;2022-09-02T04:37:53;13.70;99.90
52849;DHT22;38714;53.180;5.812;2022-09-02T04:40:19;13.70;99.90
52849;DHT22;38714;53.180;5.812;2022-09-02T04:42:44;13.70;99.90
52849;DHT22;38714;53.180;5.812;2022-09-02T04:45:11;13.70;99.90
52849;DHT22;38714;53.180;5.812;2022-09-02T04:47:36;13.60;99.90
52849;DHT22;38714;53.180;5.812;2022-09-02T04:50:02;13.60;99.90
52849;DHT22;38714;53.180;5.812;2022-09-02T04:52:28;13.60;99.90
52849;DHT22;38714;53.180;5.812;2022-09-02T04:54:53;13.60;99.90
52849;DHT22;38714;53.180;5.812;2022-09-02T04:57:19;13.60;99.90
52849;DHT22;38714;53.180;5.812;2022-09-02T04:59:44;13.70;99.90
52849;DHT22;38714;53.180;5.812;2022-09-02T05:02:10;13.60;99.90
52849;DHT22;38714;53.180;5.812;2022-09-02T05:04:36;13.60;99.90
52849;DHT22;38714;53.180;5.812;2022-09-02T05:07:02;13.50;99.90
52849;DHT22;38714;53.180;5.812;2022-09-02T05:09:28;13.50;99.90
52849;DHT22;38714;53.180;5.812;2022-09-02T05:11:53;13.50;99.90
52849;DHT22;38714;53.180;5.812;2022-09-02T05:14:22;13.50;99.90
52849;DHT22;38714;53.180;5.812;2022-09-02T05:16:47;13.50;99.90
52849;DHT22;38714;53.180;5.812;2022-09-02T05:19:13;13.50;99.90
52849;DHT22;38714;53.180;5.812;2022-09-02T05:21:40;13.50;99.90
52849;DHT22;38714;53.180;5.812;2022-09-02T05:24:06;13.50;99.90
52849;DHT22;38714;53.180;5.812;2022-09-02T05:26:31;13.50;99.90
52849;DHT22;38714;53.180;5.812;2022-09-02T05:29:01;13.50;99.90
52849;DHT22;38714;53.180;5.812;2022-09-02T05:31:26;13.50;99.90
52849;DHT22;38714;53.180;5.812;2022-09-02T05:33:53;13.50;99.90
52849;DHT22;38714;53.180;5.812;2022-09-02T05:36:19;13.50;99.90
52849;DHT22;38714;53.180;5.812;2022-09-02T05:38:45;13.60;99.90
52849;DHT22;38714;53.180;5.812;2022-09-02T05:41:12;13.60;99.90
52849;DHT22;38714;53.180;5.812;2022-09-02T05:43:40;13.60;99.90
52849;DHT22;38714;53.180;5.812;2022-09-02T05:46:08;13.60;99.90
52849;DHT22;38714;53.180;5.812;2022-09-02T05:48:34;13.70;99.90
52849;DHT22;38714;53.180;5.812;2022-09-02T05:51:19;13.70;99.90
52849;DHT22;38714;53.180;5.812;2022-09-02T05:53:45;13.70;99.90
52849;DHT22;38714;53.180;5.812;2022-09-02T05:56:11;13.70;99.90
52849;DHT22;38714;53.180;5.812;2022-09-02T05:58:36;13.80;99.90
52849;DHT22;38714;53.180;5.812;2022-09-02T06:01:12;13.80;99.90
52849;DHT22;38714;53.180;5.812;2022-09-02T06:03:38;13.80;99.90
52849;DHT22;38714;53.180;5.812;2022-09-02T06:06:04;13.90;99.90
52849;DHT22;38714;53.180;5.812;2022-09-02T06:08:30;13.90;99.90
52849;DHT22;38714;53.180;5.812;2022-09-02T06:10:56;13.90;99.90
52849;DHT22;38714;53.180;5.812;2022-09-02T06:13:21;13.90;99.90
52849;DHT22;38714;53.180;5.812;2022-09-02T06:15:49;13.90;99.90
52849;DHT22;38714;53.180;5.812;2022-09-02T06:18:16;14.00;99.90
52849;DHT22;38714;53.180;5.812;2022-09-02T06:20:46;14.00;99.90
52849;DHT22;38714;53.180;5.812;2022-09-02T06:23:12;14.10;99.90
52849;DHT22;38714;53.180;5.812;2022-09-02T06:25:38;14.10;99.90
52849;DHT22;38714;53.180;5.812;2022-09-02T06:28:03;14.10;99.90
52849;DHT22;38714;53.180;5.812;2022-09-02T06:30:29;14.10;99.90
52849;DHT22;38714;53.180;5.812;2022-09-02T06:32:54;14.20;99.90
52849;DHT22;38714;53.180;5.812;2022-09-02T06:35:20;14.20;99.90
52849;DHT22;38714;53.180;5.812;2022-09-02T06:37:46;14.30;99.90
52849;DHT22;38714;53.180;5.812;2022-09-02T06:40:11;14.30;99.90
52849;DHT22;38714;53.180;5.812;2022-09-02T06:42:39;14.40;99.90
52849;DHT22;38714;53.180;5.812;2022-09-02T06:45:05;14.40;99.90
52849;DHT22;38714;53.180;5.812;2022-09-02T06:47:31;14.40;99.90
52849;DHT22;38714;53.180;5.812;2022-09-02T06:49:56;14.50;99.90
52849;DHT22;38714;53.180;5.812;2022-09-02T06:52:22;14.50;99.90
52849;DHT22;38714;53.180;5.812;2022-09-02T06:54:47;14.50;99.90
52849;DHT22;38714;53.180;5.812;2022-09-02T06:57:14;14.60;99.90
52849;DHT22;38714;53.180;5.812;2022-09-02T06:59:40;14.60;99.90
52849;DHT22;38714;53.180;5.812;2022-09-02T07:02:06;14.70;99.90
52849;DHT22;38714;53.180;5.812;2022-09-02T07:04:31;14.80;99.90
52849;DHT22;38714;53.180;5.812;2022-09-02T07:07:15;14.80;99.90
52849;DHT22;38714;53.180;5.812;2022-09-02T07:09:41;14.90;99.90
52849;DHT22;38714;53.180;5.812;2022-09-02T07:12:06;14.90;99.90
52849;DHT22;38714;53.180;5.812;2022-09-02T07:14:36;15.00;99.90
52849;DHT22;38714;53.180;5.812;2022-09-02T07:17:02;15.00;99.90
52849;DHT22;38714;53.180;5.812;2022-09-02T07:19:30;15.10;99.90
52849;DHT22;38714;53.180;5.812;2022-09-02T07:21:56;15.10;99.90
52849;DHT22;38714;53.180;5.812;2022-09-02T07:24:24;15.20;99.90
52849;DHT22;38714;53.180;5.812;2022-09-02T07:26:53;15.20;99.90
52849;DHT22;38714;53.180;5.812;2022-09-02T07:29:18;15.30;99.90
52849;DHT22;38714;53.180;5.812;2022-09-02T07:31:44;15.40;99.90
52849;DHT22;38714;53.180;5.812;2022-09-02T07:34:10;15.40;99.90
52849;DHT22;38714;53.180;5.812;2022-09-02T07:36:37;15.50;99.90
52849;DHT22;38714;53.180;5.812;2022-09-02T07:39:04;15.50;99.90
52849;DHT22;38714;53.180;5.812;2022-09-02T07:41:29;15.60;99.90
52849;DHT22;38714;53.180;5.812;2022-09-02T07:43:55;15.70;99.90
52849;DHT22;38714;53.180;5.812;2022-09-02T07:46:21;15.70;99.90
52849;DHT22;38714;53.180;5.812;2022-09-02T07:48:47;15.70;99.90
52849;DHT22;38714;53.180;5.812;2022-09-02T07:51:16;15.80;99.90
52849;DHT22;38714;53.180;5.812;2022-09-02T07:53:42;15.90;99.90
52849;DHT22;38714;53.180;5.812;2022-09-02T07:56:10;15.90;99.90
52849;DHT22;38714;53.180;5.812;2022-09-02T07:58:35;16.00;99.90
52849;DHT22;38714;53.180;5.812;2022-09-02T08:01:03;16.00;99.90
52849;DHT22;38714;53.180;5.812;2022-09-02T08:03:28;16.10;99.90
52849;DHT22;38714;53.180;5.812;2022-09-02T08:05:54;16.20;99.90
52849;DHT22;38714;53.180;5.812;2022-09-02T08:08:21;16.20;99.90
52849;DHT22;38714;53.180;5.812;2022-09-02T08:10:48;16.30;99.90
52849;DHT22;38714;53.180;5.812;2022-09-02T08:13:14;16.40;99.90
52849;DHT22;38714;53.180;5.812;2022-09-02T08:15:40;16.40;99.90
52849;DHT22;38714;53.180;5.812;2022-09-02T08:18:06;16.50;99.90
52849;DHT22;38714;53.180;5.812;2022-09-02T08:20:31;16.60;99.90
52849;DHT22;38714;53.180;5.812;2022-09-02T08:22:57;16.60;99.90
52849;DHT22;38714;53.180;5.812;2022-09-02T08:25:23;16.70;99.90
52849;DHT22;38714;53.180;5.812;2022-09-02T08:27:49;16.70;99.90
52849;DHT22;38714;53.180;5.812;2022-09-02T08:30:14;16.70;99.90
52849;DHT22;38714;53.180;5.812;2022-09-02T08:32:40;16.80;99.90
52849;DHT22;38714;53.180;5.812;2022-09-02T08:35:06;16.80;99.90
52849;DHT22;38714;53.180;5.812;2022-09-02T08:37:32;16.90;99.90
52849;DHT22;38714;53.180;5.812;2022-09-02T08:39:58;17.00;99.90
52849;DHT22;38714;53.180;5.812;2022-09-02T08:42:28;17.10;99.90
52849;DHT22;38714;53.180;5.812;2022-09-02T08:44:57;17.10;99.90
52849;DHT22;38714;53.180;5.812;2022-09-02T08:47:25;17.20;99.90
52849;DHT22;38714;53.180;5.812;2022-09-02T08:49:58;17.20;99.90
52849;DHT22;38714;53.180;5.812;2022-09-02T08:52:42;17.30;99.90
52849;DHT22;38714;53.180;5.812;2022-09-02T08:55:13;17.30;99.90
52849;DHT22;38714;53.180;5.812;2022-09-02T08:57:40;17.40;99.90
52849;DHT22;38714;53.180;5.812;2022-09-02T09:00:07;17.40;99.90
52849;DHT22;38714;53.180;5.812;2022-09-02T09:02:49;17.50;99.90
52849;DHT22;38714;53.180;5.812;2022-09-02T09:10:37;17.70;99.90
52849;DHT22;38714;53.180;5.812;2022-09-02T09:13:12;17.70;99.90
52849;DHT22;38714;53.180;5.812;2022-09-02T09:15:43;17.70;99.90
52849;DHT22;38714;53.180;5.812;2022-09-02T09:18:15;17.80;99.90
52849;DHT22;38714;53.180;5.812;2022-09-02T09:20:42;17.80;99.90
52849;DHT22;38714;53.180;5.812;2022-09-02T09:23:14;17.90;99.90
52849;DHT22;38714;53.180;5.812;2022-09-02T09:25:42;17.90;99.90
52849;DHT22;38714;53.180;5.812;2022-09-02T09:28:09;18.00;99.90
52849;DHT22;38714;53.180;5.812;2022-09-02T09:30:34;18.00;99.90
52849;DHT22;38714;53.180;5.812;2022-09-02T09:33:00;18.10;99.90
52849;DHT22;38714;53.180;5.812;2022-09-02T09:35:26;18.10;99.90
52849;DHT22;38714;53.180;5.812;2022-09-02T09:37:52;18.20;99.90
52849;DHT22;38714;53.180;5.812;2022-09-02T09:50:31;18.50;99.90
52849;DHT22;38714;53.180;5.812;2022-09-02T09:53:12;18.60;99.90
52849;DHT22;38714;53.180;5.812;2022-09-02T09:55:48;18.60;99.90
52849;DHT22;38714;53.180;5.812;2022-09-02T09:58:14;18.60;99.90
52849;DHT22;38714;53.180;5.812;2022-09-02T10:00:39;18.70;99.90
52849;DHT22;38714;53.180;5.812;2022-09-02T10:03:05;18.80;99.90
52849;DHT22;38714;53.180;5.812;2022-09-02T10:05:36;18.80;99.90
52849;DHT22;38714;53.180;5.812;2022-09-02T10:08:03;18.80;99.90
52849;DHT22;38714;53.180;5.812;2022-09-02T10:10:30;18.90;99.90
52849;DHT22;38714;53.180;5.812;2022-09-02T10:12:57;18.90;99.90
52849;DHT22;38714;53.180;5.812;2022-09-02T10:15:28;19.00;99.90
52849;DHT22;38714;53.180;5.812;2022-09-02T10:20:35;19.00;99.90
52849;DHT22;38714;53.180;5.812;2022-09-02T10:23:11;19.10;99.90
52849;DHT22;38714;53.180;5.812;2022-09-02T10:28:21;19.20;99.90
52849;DHT22;38714;53.180;5.812;2022-09-02T10:34:07;19.30;99.90
52849;DHT22;38714;53.180;5.812;2022-09-02T10:42:08;19.40;99.90
52849;DHT22;38714;53.180;5.812;2022-09-02T10:47:13;19.50;99.90
52849;DHT22;38714;53.180;5.812;2022-09-02T10:49:55;19.50;99.70
52849;DHT22;38714;53.180;5.812;2022-09-02T10:57:44;19.60;99.90
52849;DHT22;38714;53.180;5.812;2022-09-02T11:00:15;19.60;99.90
52849;DHT22;38714;53.180;5.812;2022-09-02T11:03:06;19.70;99.10
52849;DHT22;38714;53.180;5.812;2022-09-02T11:05:42;19.70;99.60
52849;DHT22;38714;53.180;5.812;2022-09-02T11:08:20;19.80;98.70
52849;DHT22;38714;53.180;5.812;2022-09-02T11:11:00;19.80;99.90
52849;DHT22;38714;53.180;5.812;2022-09-02T11:16:10;19.90;99.90
52849;DHT22;38714;53.180;5.812;2022-09-02T11:29:06;20.20;98.20
52849;DHT22;38714;53.180;5.812;2022-09-02T11:31:45;20.20;98.30
52849;DHT22;38714;53.180;5.812;2022-09-02T11:34:19;20.30;98.00
52849;DHT22;38714;53.180;5.812;2022-09-02T11:36:45;20.40;97.00
52849;DHT22;38714;53.180;5.812;2022-09-02T11:39:12;20.40;96.30
52849;DHT22;38714;53.180;5.812;2022-09-02T11:42:03;20.50;96.20
52849;DHT22;38714;53.180;5.812;2022-09-02T11:52:06;20.60;96.00
52849;DHT22;38714;53.180;5.812;2022-09-02T11:54:35;20.60;95.20
52849;DHT22;38714;53.180;5.812;2022-09-02T11:57:01;20.60;95.90
52849;DHT22;38714;53.180;5.812;2022-09-02T12:02:12;20.70;95.60
52849;DHT22;38714;53.180;5.812;2022-09-02T12:05:26;20.80;96.10
52849;DHT22;38714;53.180;5.812;2022-09-02T12:07:46;20.80;95.70
52849;DHT22;38714;53.180;5.812;2022-09-02T12:15:24;20.80;95.50
52849;DHT22;38714;53.180;5.812;2022-09-02T12:23:00;21.00;94.00
52849;DHT22;38714;53.180;5.812;2022-09-02T12:28:08;21.10;94.00
52849;DHT22;38714;53.180;5.812;2022-09-02T12:35:55;21.30;91.90
52849;DHT22;38714;53.180;5.812;2022-09-02T12:38:26;21.30;90.80
52849;DHT22;38714;53.180;5.812;2022-09-02T12:40:53;21.30;93.50
52849;DHT22;38714;53.180;5.812;2022-09-02T12:43:24;21.30;93.00
52849;DHT22;38714;53.180;5.812;2022-09-02T12:45:52;21.30;92.90
52849;DHT22;38714;53.180;5.812;2022-09-02T12:48:18;21.30;92.40
52849;DHT22;38714;53.180;5.812;2022-09-02T12:53:34;21.30;92.10
52849;DHT22;38714;53.180;5.812;2022-09-02T12:56:02;21.40;92.20
52849;DHT22;38714;53.180;5.812;2022-09-02T12:58:31;21.40;92.00
52849;DHT22;38714;53.180;5.812;2022-09-02T13:03:34;21.50;91.80
52849;DHT22;38714;53.180;5.812;2022-09-02T13:06:06;21.50;92.70
52849;DHT22;38714;53.180;5.812;2022-09-02T13:08:39;21.50;91.80
52849;DHT22;38714;53.180;5.812;2022-09-02T13:14:07;21.60;91.80
52849;DHT22;38714;53.180;5.812;2022-09-02T13:16:38;21.50;90.40
52849;DHT22;38714;53.180;5.812;2022-09-02T13:24:27;21.70;92.20
52849;DHT22;38714;53.180;5.812;2022-09-02T13:34:33;21.80;90.30
52849;DHT22;38714;53.180;5.812;2022-09-02T13:37:05;21.70;90.30
52849;DHT22;38714;53.180;5.812;2022-09-02T13:39:34;21.80;89.80
52849;DHT22;38714;53.180;5.812;2022-09-02T13:42:12;21.80;90.10
52849;DHT22;38714;53.180;5.812;2022-09-02T13:44:38;21.80;89.20
52849;DHT22;38714;53.180;5.812;2022-09-02T13:47:11;21.80;85.80
52849;DHT22;38714;53.180;5.812;2022-09-02T13:49:39;21.90;90.70
52849;DHT22;38714;53.180;5.812;2022-09-02T13:52:05;21.90;90.20
52849;DHT22;38714;53.180;5.812;2022-09-02T13:54:33;21.90;87.00
52849;DHT22;38714;53.180;5.812;2022-09-02T13:56:59;22.00;86.30
52849;DHT22;38714;53.180;5.812;2022-09-02T14:01:57;22.00;87.40
52849;DHT22;38714;53.180;5.812;2022-09-02T14:04:23;22.10;90.30
52849;DHT22;38714;53.180;5.812;2022-09-02T14:06:49;22.10;87.60
52849;DHT22;38714;53.180;5.812;2022-09-02T14:09:24;22.10;86.20
52849;DHT22;38714;53.180;5.812;2022-09-02T14:11:51;22.10;85.60
52849;DHT22;38714;53.180;5.812;2022-09-02T14:14:21;22.10;84.50
52849;DHT22;38714;53.180;5.812;2022-09-02T14:16:47;22.10;82.70
52849;DHT22;38714;53.180;5.812;2022-09-02T14:24:20;22.20;83.60
52849;DHT22;38714;53.180;5.812;2022-09-02T14:26:46;22.20;83.30
52849;DHT22;38714;53.180;5.812;2022-09-02T14:29:16;22.20;85.90
52849;DHT22;38714;53.180;5.812;2022-09-02T14:31:42;22.30;84.10
52849;DHT22;38714;53.180;5.812;2022-09-02T14:36:52;22.20;84.10
52849;DHT22;38714;53.180;5.812;2022-09-02T14:39:17;22.20;84.90
52849;DHT22;38714;53.180;5.812;2022-09-02T14:41:53;22.20;83.30
52849;DHT22;38714;53.180;5.812;2022-09-02T14:44:23;22.30;75.30
52849;DHT22;38714;53.180;5.812;2022-09-02T14:46:49;22.30;80.60
52849;DHT22;38714;53.180;5.812;2022-09-02T14:51:51;22.30;83.00
52849;DHT22;38714;53.180;5.812;2022-09-02T14:54:33;22.30;83.50
52849;DHT22;38714;53.180;5.812;2022-09-02T14:56:59;22.30;83.50
52849;DHT22;38714;53.180;5.812;2022-09-02T14:59:24;22.30;83.30
52849;DHT22;38714;53.180;5.812;2022-09-02T15:01:50;22.30;82.80
52849;DHT22;38714;53.180;5.812;2022-09-02T15:04:16;22.30;82.20
52849;DHT22;38714;53.180;5.812;2022-09-02T15:06:43;22.30;83.40
52849;DHT22;38714;53.180;5.812;2022-09-02T15:09:09;22.30;82.90
52849;DHT22;38714;53.180;5.812;2022-09-02T15:11:36;22.30;84.30
52849;DHT22;38714;53.180;5.812;2022-09-02T15:14:02;22.40;84.70
52849;DHT22;38714;53.180;5.812;2022-09-02T15:16:27;22.40;84.60
52849;DHT22;38714;53.180;5.812;2022-09-02T15:18:53;22.40;84.50
52849;DHT22;38714;53.180;5.812;2022-09-02T15:21:19;22.40;81.80
52849;DHT22;38714;53.180;5.812;2022-09-02T15:23:45;22.40;78.50
52849;DHT22;38714;53.180;5.812;2022-09-02T15:26:11;22.40;81.60
52849;DHT22;38714;53.180;5.812;2022-09-02T15:28:37;22.40;80.90
52849;DHT22;38714;53.180;5.812;2022-09-02T15:31:03;22.50;82.30
52849;DHT22;38714;53.180;5.812;2022-09-02T15:33:28;22.50;82.40
52849;DHT22;38714;53.180;5.812;2022-09-02T15:35:54;22.50;81.20
52849;DHT22;38714;53.180;5.812;2022-09-02T15:38:28;22.50;83.10
52849;DHT22;38714;53.180;5.812;2022-09-02T15:40:54;22.50;82.90
52849;DHT22;38714;53.180;5.812;2022-09-02T15:43:19;22.50;82.70
52849;DHT22;38714;53.180;5.812;2022-09-02T15:45:46;22.50;84.70
52849;DHT22;38714;53.180;5.812;2022-09-02T15:48:12;22.50;81.60
52849;DHT22;38714;53.180;5.812;2022-09-02T15:50:38;22.50;81.80
52849;DHT22;38714;53.180;5.812;2022-09-02T15:53:03;22.50;81.70
52849;DHT22;38714;53.180;5.812;2022-09-02T15:55:33;22.50;78.90
52849;DHT22;38714;53.180;5.812;2022-09-02T15:57:59;22.50;83.80
52849;DHT22;38714;53.180;5.812;2022-09-02T16:00:25;22.60;80.20
52849;DHT22;38714;53.180;5.812;2022-09-02T16:02:51;22.60;80.70
52849;DHT22;38714;53.180;5.812;2022-09-02T16:05:16;22.60;80.30
52849;DHT22;38714;53.180;5.812;2022-09-02T16:07:42;22.60;78.60
52849;DHT22;38714;53.180;5.812;2022-09-02T16:10:08;22.60;79.90
52849;DHT22;38714;53.180;5.812;2022-09-02T16:12:34;22.60;78.40
52849;DHT22;38714;53.180;5.812;2022-09-02T16:14:59;22.60;74.30
52849;DHT22;38714;53.180;5.812;2022-09-02T16:17:25;22.60;78.70
52849;DHT22;38714;53.180;5.812;2022-09-02T16:19:50;22.60;81.90
52849;DHT22;38714;53.180;5.812;2022-09-02T16:22:19;22.60;82.20
52849;DHT22;38714;53.180;5.812;2022-09-02T16:24:44;22.60;76.90
52849;DHT22;38714;53.180;5.812;2022-09-02T16:27:10;22.60;78.30
52849;DHT22;38714;53.180;5.812;2022-09-02T16:29:36;22.60;78.10
52849;DHT22;38714;53.180;5.812;2022-09-02T16:32:03;22.60;75.80
52849;DHT22;38714;53.180;5.812;2022-09-02T16:34:29;22.60;77.50
52849;DHT22;38714;53.180;5.812;2022-09-02T16:36:55;22.60;74.30
52849;DHT22;38714;53.180;5.812;2022-09-02T16:39:21;22.60;76.70
52849;DHT22;38714;53.180;5.812;2022-09-02T16:41:50;22.60;79.80
52849;DHT22;38714;53.180;5.812;2022-09-02T16:44:22;22.60;75.90
52849;DHT22;38714;53.180;5.812;2022-09-02T16:46:48;22.60;75.60
52849;DHT22;38714;53.180;5.812;2022-09-02T16:49:14;22.60;77.80
52849;DHT22;38714;53.180;5.812;2022-09-02T16:51:43;22.60;78.00
52849;DHT22;38714;53.180;5.812;2022-09-02T16:54:12;22.60;78.50
52849;DHT22;38714;53.180;5.812;2022-09-02T16:56:38;22.50;78.20
52849;DHT22;38714;53.180;5.812;2022-09-02T16:59:05;22.50;80.30
52849;DHT22;38714;53.180;5.812;2022-09-02T17:01:31;22.50;78.30
52849;DHT22;38714;53.180;5.812;2022-09-02T17:03:57;22.40;81.30
52849;DHT22;38714;53.180;5.812;2022-09-02T17:06:24;22.40;81.70
52849;DHT22;38714;53.180;5.812;2022-09-02T17:08:50;22.30;82.80
52849;DHT22;38714;53.180;5.812;2022-09-02T17:13:41;22.20;83.70
52849;DHT22;38714;53.180;5.812;2022-09-02T17:16:06;22.20;84.30
52849;DHT22;38714;53.180;5.812;2022-09-02T17:18:33;22.20;84.50
52849;DHT22;38714;53.180;5.812;2022-09-02T17:21:15;22.10;85.40
52849;DHT22;38714;53.180;5.812;2022-09-02T17:23:41;22.10;86.30
52849;DHT22;38714;53.180;5.812;2022-09-02T17:26:07;22.00;84.60
52849;DHT22;38714;53.180;5.812;2022-09-02T17:28:33;21.90;86.30
52849;DHT22;38714;53.180;5.812;2022-09-02T17:30:59;21.90;87.50